createdAt,value
2018-04-15T00:01:53.552Z,101271.74
2018-04-15T00:04:21.123Z,101271.05
2018-04-15T00:06:48.729Z,101269.18
2018-04-15T00:09:16.320Z,101268.80
2018-04-15T00:11:43.849Z,101264.23
2018-04-15T00:14:12.160Z,101268.20
2018-04-15T00:16:39.683Z,101274.50
2018-04-15T00:19:07.713Z,101267.51
2018-04-15T00:21:35.249Z,101264.91
2018-04-15T00:24:03.209Z,101266.47
2018-04-15T00:26:30.761Z,101264.16
2018-04-15T00:28:58.594Z,101262.45
2018-04-15T00:31:26.185Z,101268.55
2018-04-15T00:33:53.754Z,101259.56
2018-04-15T00:36:21.307Z,101255.78
2018-04-15T00:38:48.861Z,101253.67
2018-04-15T00:41:16.424Z,101254.88
2018-04-15T00:43:43.976Z,101250.90
2018-04-15T00:46:11.545Z,101245.35
2018-04-15T00:48:39.091Z,101240.53
2018-04-15T00:51:06.653Z,101247.36
2018-04-15T00:53:45.843Z,101247.02
2018-04-15T00:56:13.718Z,101238.76
2018-04-15T00:58:41.267Z,101236.05
2018-04-15T01:01:09.278Z,101236.91
2018-04-15T01:03:36.868Z,101232.99
2018-04-15T01:06:04.441Z,101229.87
2018-04-15T01:08:32.004Z,101226.15
2018-04-15T01:10:59.547Z,101231.11
2018-04-15T01:13:27.115Z,101226.27
2018-04-15T01:15:54.651Z,101219.87
2018-04-15T01:18:22.228Z,101214.77
2018-04-15T01:20:49.794Z,101211.44
2018-04-15T01:23:17.347Z,101213.39
2018-04-15T01:25:44.899Z,101217.45
2018-04-15T01:28:12.465Z,101214.08
2018-04-15T01:30:39.987Z,101210.28
2018-04-15T01:33:07.575Z,101210.75
2018-04-15T01:35:35.122Z,101207.01
2018-04-15T01:38:02.716Z,101207.44
2018-04-15T01:40:30.260Z,101206.95
2018-04-15T01:42:57.835Z,101201.19
2018-04-15T01:45:25.364Z,101194.48
2018-04-15T01:47:52.996Z,101194.72
2018-04-15T01:50:20.531Z,101195.59
2018-04-15T01:52:48.647Z,101190.14
2018-04-15T01:55:16.209Z,101190.59
2018-04-15T01:57:43.773Z,101194.66
2018-04-15T02:00:11.325Z,101185.54
2018-04-15T02:02:39.472Z,101187.65
2018-04-15T02:05:07.009Z,101188.80
2018-04-15T02:07:34.910Z,101181.45
2018-04-15T02:10:02.510Z,101178.89
2018-04-15T02:12:30.358Z,101179.55
2018-04-15T02:14:57.933Z,101181.61
2018-04-15T02:17:25.515Z,101174.97
2018-04-15T02:19:53.104Z,101183.67
2018-04-15T02:22:20.677Z,101172.84
2018-04-15T02:24:48.235Z,101170.27
2018-04-15T02:27:15.791Z,101172.79
2018-04-15T02:29:43.381Z,101168.30
2018-04-15T02:32:10.962Z,101165.05
2018-04-15T02:34:38.562Z,101161.88
2018-04-15T02:37:06.105Z,101161.05
2018-04-15T02:39:33.688Z,101163.51
2018-04-15T02:42:01.226Z,101169.78
2018-04-15T02:44:28.800Z,101173.14
2018-04-15T02:46:56.376Z,101174.55
2018-04-15T02:49:24.491Z,101172.89
2018-04-15T02:51:52.049Z,101172.34
2018-04-15T02:54:19.652Z,101170.03
2018-04-15T02:56:47.203Z,101171.91
2018-04-15T02:59:15.311Z,101161.23
2018-04-15T03:01:42.843Z,101161.91
2018-04-15T03:04:10.906Z,101162.23
2018-04-15T03:06:38.534Z,101162.01
2018-04-15T03:09:06.319Z,101161.50
2018-04-15T03:11:34.067Z,101171.23
2018-04-15T03:14:01.645Z,101168.39
2018-04-15T03:16:29.231Z,101167.12
2018-04-15T03:18:56.777Z,101159.17
2018-04-15T03:21:24.449Z,101164.73
2018-04-15T03:23:52.315Z,101160.89
2018-04-15T03:26:20.341Z,101153.62
2018-04-15T03:28:47.882Z,101150.30
2018-04-15T03:31:15.959Z,101151.70
2018-04-15T03:33:43.518Z,101136.59
2018-04-15T03:36:11.444Z,101141.30
2018-04-15T03:38:39.135Z,101138.63
2018-04-15T03:41:06.940Z,101136.80
2018-04-15T03:43:34.547Z,101138.43
2018-04-15T03:46:02.094Z,101131.73
2018-04-15T03:48:29.684Z,101137.02
2018-04-15T03:50:57.237Z,101132.13
2018-04-15T03:53:24.868Z,101141.22
2018-04-15T03:55:52.398Z,101139.08
2018-04-15T03:58:19.978Z,101142.83
2018-04-15T04:00:47.517Z,101145.42
2018-04-15T04:03:15.093Z,101152.46
2018-04-15T04:05:42.657Z,101151.14
2018-04-15T04:08:10.267Z,101151.30
2018-04-15T04:10:37.826Z,101149.45
2018-04-15T04:13:05.468Z,101156.30
2018-04-15T04:15:33.001Z,101157.33
2018-04-15T04:18:12.967Z,101145.27
2018-04-15T04:20:52.518Z,101153.14
2018-04-15T04:23:31.988Z,101145.91
2018-04-15T04:26:04.479Z,101142.52
2018-04-15T04:28:32.444Z,101139.97
2018-04-15T04:31:00.024Z,101143.48
2018-04-15T04:33:27.728Z,101137.22
2018-04-15T04:35:55.309Z,101140.69
2018-04-15T04:38:22.845Z,101135.55
2018-04-15T04:40:50.415Z,101135.56
2018-04-15T04:43:17.959Z,101139.59
2018-04-15T04:45:45.529Z,101134.63
2018-04-15T04:48:13.064Z,101137.36
2018-04-15T04:50:40.684Z,101131.30
2018-04-15T04:53:08.222Z,101132.92
2018-04-15T04:55:35.800Z,101124.92
2018-04-15T04:58:03.387Z,101123.14
2018-04-15T05:00:30.975Z,101128.52
2018-04-15T05:02:58.569Z,101125.85
2018-04-15T05:05:26.156Z,101113.59
2018-04-15T05:07:53.684Z,101121.44
2018-04-15T05:10:21.261Z,101118.28
2018-04-15T05:12:48.853Z,101116.88
2018-04-15T05:15:16.408Z,101117.83
2018-04-15T05:17:43.959Z,101110.31
2018-04-15T05:20:11.569Z,101109.98
2018-04-15T05:22:39.115Z,101114.47
2018-04-15T05:25:06.669Z,101113.24
2018-04-15T05:27:34.251Z,101113.16
2018-04-15T05:30:02.601Z,101118.16
2018-04-15T05:32:30.146Z,101111.85
2018-04-15T05:34:58.143Z,101114.72
2018-04-15T05:37:25.712Z,101107.41
2018-04-15T05:39:53.607Z,101106.62
2018-04-15T05:42:21.160Z,101106.14
2018-04-15T05:44:49.080Z,101100.63
2018-04-15T05:47:16.653Z,101104.34
2018-04-15T05:49:44.198Z,101093.05
2018-04-15T05:52:11.783Z,101093.80
2018-04-15T05:54:39.324Z,101098.52
2018-04-15T05:57:06.895Z,101101.14
2018-04-15T05:59:34.522Z,101099.80
2018-04-15T06:02:02.099Z,101097.55
2018-04-15T06:04:29.664Z,101090.67
2018-04-15T06:06:57.280Z,101079.24
2018-04-15T06:09:24.849Z,101071.70
2018-04-15T06:11:52.520Z,101075.31
2018-04-15T06:14:20.111Z,101077.30
2018-04-15T06:16:48.310Z,101073.86
2018-04-15T06:19:15.828Z,101073.30
2018-04-15T06:21:43.399Z,101063.61
2018-04-15T06:24:10.958Z,101066.59
2018-04-15T06:26:38.530Z,101055.13
2018-04-15T06:29:06.073Z,101044.72
2018-04-15T06:31:34.242Z,101041.66
2018-04-15T06:34:01.802Z,101035.98
2018-04-15T06:36:29.982Z,101033.00
2018-04-15T06:38:57.522Z,101035.38
2018-04-15T06:41:25.068Z,101032.14
2018-04-15T06:43:52.627Z,101036.03
2018-04-15T06:46:20.179Z,101035.05
2018-04-15T06:48:47.774Z,101034.11
2018-04-15T06:51:15.300Z,101025.09
2018-04-15T06:53:42.892Z,101027.64
2018-04-15T06:56:10.481Z,101021.47
2018-04-15T06:58:38.047Z,101020.06
2018-04-15T07:01:05.597Z,101022.70
2018-04-15T07:03:33.182Z,101026.48
2018-04-15T07:06:00.724Z,101020.89
2018-04-15T07:08:28.306Z,101019.73
2018-04-15T07:10:55.864Z,101017.00
2018-04-15T07:13:23.435Z,101011.70
2018-04-15T07:15:50.978Z,101016.13
2018-04-15T07:18:18.544Z,101013.84
2018-04-15T07:20:46.102Z,101001.83
2018-04-15T07:23:13.661Z,101011.20
2018-04-15T07:25:41.232Z,101013.74
2018-04-15T07:28:08.822Z,101006.52
2018-04-15T07:30:36.392Z,100999.02
2018-04-15T07:33:03.954Z,101009.02
2018-04-15T07:35:31.510Z,101010.11
2018-04-15T07:37:59.070Z,101014.66
2018-04-15T07:40:26.637Z,101018.91
2018-04-15T07:42:54.249Z,101021.33
2018-04-15T07:45:21.830Z,101023.42
2018-04-15T07:47:50.026Z,101014.75
2018-04-15T07:50:17.560Z,101005.87
2018-04-15T07:52:45.766Z,100995.47
2018-04-15T07:55:13.405Z,101003.70
2018-04-15T07:57:41.604Z,100999.95
2018-04-15T08:00:09.235Z,100999.95
2018-04-15T08:02:36.782Z,100999.87
2018-04-15T08:05:04.370Z,101001.73
2018-04-15T08:07:31.909Z,100999.50
2018-04-15T08:10:19.484Z,100991.23
2018-04-15T08:12:47.022Z,100991.05
2018-04-15T08:15:14.613Z,100994.47
2018-04-15T08:17:42.177Z,100987.65
2018-04-15T08:20:09.820Z,100985.98
2018-04-15T08:22:37.442Z,100984.78
2018-04-15T08:25:05.006Z,100988.21
2018-04-15T08:27:32.593Z,100988.46
2018-04-15T08:30:00.199Z,100986.85
2018-04-15T08:32:27.760Z,100983.02
2018-04-15T08:34:55.358Z,100983.22
2018-04-15T08:37:23.023Z,100981.03
2018-04-15T08:39:51.278Z,100980.25
2018-04-15T08:42:18.815Z,100981.58
2018-04-15T08:44:46.967Z,100985.08
2018-04-15T08:47:14.518Z,100983.09
2018-04-15T08:49:42.775Z,100980.60
2018-04-15T08:52:10.443Z,100981.45
2018-04-15T08:54:38.075Z,100974.29
2018-04-15T08:57:05.657Z,100965.13
2018-04-15T08:59:33.211Z,100958.41
2018-04-15T09:02:01.554Z,100957.88
2018-04-15T09:04:29.114Z,100949.20
2018-04-15T09:06:57.098Z,100944.91
2018-04-15T09:09:24.635Z,100940.17
2018-04-15T09:11:52.981Z,100943.62
2018-04-15T09:14:20.541Z,100942.60
2018-04-15T09:16:48.131Z,100943.84
2018-04-15T09:19:19.248Z,100938.05
2018-04-15T09:21:46.859Z,100942.47
2018-04-15T09:24:14.414Z,100936.13
2018-04-15T09:26:42.912Z,100931.59
2018-04-15T09:29:30.451Z,100940.20
2018-04-15T09:31:58.383Z,100934.79
2018-04-15T09:34:25.944Z,100929.13
2018-04-15T09:36:54.543Z,100931.97
2018-04-15T09:39:22.993Z,100933.11
2018-04-15T09:41:50.528Z,100931.21
2018-04-15T09:44:18.523Z,100928.72
2018-04-15T09:46:46.109Z,100924.92
2018-04-15T09:49:14.439Z,100928.45
2018-04-15T09:51:54.440Z,100922.23
2018-04-15T09:54:46.548Z,100918.97
2018-04-15T10:10:18.296Z,100906.52
2018-04-15T10:12:52.661Z,100904.22
2018-04-15T10:15:37.464Z,100901.36
2018-04-15T10:27:50.126Z,100894.98
2018-04-15T10:30:18.664Z,100896.55
2018-04-15T10:32:46.222Z,100894.62
2018-04-15T10:35:14.587Z,100892.45
2018-04-15T10:37:42.526Z,100895.28
2018-04-15T10:40:10.190Z,100898.36
2018-04-15T10:42:38.567Z,100890.53
2018-04-15T10:45:06.733Z,100885.59
2018-04-15T10:47:34.875Z,100886.60
2018-04-15T10:50:03.301Z,100883.98
2018-04-15T10:52:30.835Z,100877.66
2018-04-15T10:54:58.838Z,100873.30
2018-04-15T10:57:26.425Z,100866.27
2018-04-15T10:59:54.605Z,100861.75
2018-04-15T11:02:22.295Z,100860.30
2018-04-15T11:04:49.829Z,100861.98
2018-04-15T11:07:18.172Z,100859.47
2018-04-15T11:09:45.814Z,100864.88
2018-04-15T11:12:14.200Z,100863.02
2018-04-15T11:14:41.899Z,100860.25
2018-04-15T11:17:09.438Z,100866.98
2018-04-15T11:19:37.104Z,100869.00
2018-04-15T11:22:04.654Z,100859.64
2018-04-15T11:24:32.928Z,100859.98
2018-04-15T11:27:00.495Z,100852.13
2018-04-15T11:29:28.472Z,100850.93
2018-04-15T11:31:55.996Z,100854.45
2018-04-15T11:34:24.630Z,100852.01
2018-04-15T11:36:52.998Z,100847.35
2018-04-15T11:39:20.544Z,100845.30
2018-04-15T11:41:48.857Z,100839.22
2018-04-15T11:44:16.470Z,100833.77
2018-04-15T11:46:44.300Z,100830.54
2018-04-15T11:49:11.950Z,100829.02
2018-04-15T11:51:39.568Z,100826.51
2018-04-15T11:54:07.813Z,100823.27
2018-04-15T11:56:35.346Z,100820.51
2018-04-15T11:59:03.759Z,100817.81
2018-04-15T12:01:31.336Z,100820.61
2018-04-15T12:03:59.123Z,100815.45
2018-04-15T12:06:26.748Z,100820.76
2018-04-15T12:08:54.493Z,100815.03
2018-04-15T12:11:22.143Z,100818.75
2018-04-15T12:13:49.702Z,100822.77
2018-04-15T12:16:18.117Z,100812.86
2018-04-15T12:18:45.676Z,100806.39
2018-04-15T12:21:13.786Z,100806.99
2018-04-15T12:23:41.613Z,100813.95
2018-04-15T12:26:09.755Z,100804.84
2018-04-15T12:28:37.305Z,100805.78
2018-04-15T12:31:05.841Z,100805.36
2018-04-15T12:33:33.442Z,100795.61
2018-04-15T12:36:00.984Z,100797.20
2018-04-15T12:38:28.512Z,100792.14
2018-04-15T12:40:56.077Z,100794.48
2018-04-15T12:43:24.458Z,100785.04
2018-04-15T12:45:51.988Z,100784.25
2018-04-15T12:48:20.049Z,100789.03
2018-04-15T12:50:47.600Z,100791.78
2018-04-15T12:53:15.816Z,100788.83
2018-04-15T12:55:43.464Z,100785.17
2018-04-15T12:58:11.036Z,100784.23
2018-04-15T13:00:39.521Z,100778.24
2018-04-15T13:03:07.052Z,100779.95
2018-04-15T13:05:35.405Z,100769.23
2018-04-15T13:08:02.987Z,100767.33
2018-04-15T13:10:30.569Z,100755.25
2018-04-15T13:12:58.234Z,100753.62
2018-04-15T13:15:25.787Z,100753.84
2018-04-15T13:17:53.390Z,100747.95
2018-04-15T13:20:20.920Z,100744.68
2018-04-15T13:22:48.563Z,100742.66
2018-04-15T13:25:16.199Z,100741.03
2018-04-15T13:27:44.321Z,100738.15
2018-04-15T13:30:11.953Z,100739.28
2018-04-15T13:32:40.047Z,100732.27
2018-04-15T13:35:07.619Z,100741.33
2018-04-15T13:37:35.764Z,100739.34
2018-04-15T13:40:03.372Z,100729.94
2018-04-15T13:42:44.717Z,100729.18
2018-04-15T13:45:12.284Z,100725.06
2018-04-15T13:47:40.555Z,100721.13
2018-04-15T13:50:08.112Z,100719.16
2018-04-15T13:52:35.882Z,100719.14
2018-04-15T13:55:03.413Z,100721.20
2018-04-15T13:57:30.934Z,100721.50
2018-04-15T13:59:58.623Z,100720.62
2018-04-15T14:02:26.273Z,100712.34
2018-04-15T14:04:53.924Z,100707.25
2018-04-15T14:07:21.459Z,100707.14
2018-04-15T14:09:49.813Z,100708.46
2018-04-15T14:12:17.370Z,100697.99
2018-04-15T14:14:45.419Z,100698.94
2018-04-15T14:17:13.021Z,100695.67
2018-04-15T14:19:41.276Z,100691.06
2018-04-15T14:22:08.979Z,100692.06
2018-04-15T14:24:36.511Z,100687.28
2018-04-15T14:27:04.118Z,100687.34
2018-04-15T14:29:31.677Z,100679.78
2018-04-15T14:31:59.999Z,100674.66
2018-04-15T14:34:27.593Z,100674.98
2018-04-15T14:36:55.722Z,100675.13
2018-04-15T14:39:23.306Z,100676.47
2018-04-15T14:41:51.496Z,100664.63
2018-04-15T14:44:19.170Z,100666.94
2018-04-15T14:46:46.716Z,100668.51
2018-04-15T14:49:14.310Z,100668.65
2018-04-15T14:51:42.107Z,100675.64
2018-04-15T14:54:10.383Z,100666.83
2018-04-15T14:56:37.954Z,100660.58
2018-04-15T14:59:05.856Z,100657.90
2018-04-15T15:01:38.281Z,100658.19
2018-04-15T15:04:06.234Z,100659.53
2018-04-15T15:06:33.886Z,100652.97
2018-04-15T15:09:01.692Z,100652.91
2018-04-15T15:11:29.322Z,100656.56
2018-04-15T15:13:56.882Z,100649.46
2018-04-15T15:16:24.507Z,100652.33
2018-04-15T15:18:52.102Z,100651.98
2018-04-15T15:21:20.337Z,100643.78
2018-04-15T15:23:47.923Z,100649.72
2018-04-15T15:26:16.053Z,100647.20
2018-04-15T15:28:43.732Z,100644.58
2018-04-15T15:31:11.958Z,100647.16
2018-04-15T15:33:40.347Z,100646.42
2018-04-15T15:36:08.304Z,100639.12
2018-04-15T15:38:36.230Z,100643.69
2018-04-15T15:41:03.802Z,100644.73
2018-04-15T15:43:32.091Z,100642.41
2018-04-15T15:46:00.374Z,100643.59
2018-04-15T15:48:27.962Z,100644.60
2018-04-15T15:50:56.058Z,100634.05
2018-04-15T15:53:23.594Z,100639.98
2018-04-15T15:55:51.523Z,100638.48
2018-04-15T15:58:19.105Z,100636.53
2018-04-15T16:00:47.019Z,100635.94
2018-04-15T16:03:14.661Z,100643.14
2018-04-15T16:05:42.204Z,100637.63
2018-04-15T16:08:09.784Z,100652.16
2018-04-15T16:10:37.335Z,100640.89
2018-04-15T16:13:04.926Z,100642.79
2018-04-15T16:15:32.471Z,100643.96
2018-04-15T16:18:00.924Z,100647.41
2018-04-15T16:20:28.560Z,100649.70
2018-04-15T16:22:56.676Z,100652.05
2018-04-15T16:25:24.316Z,100644.39
2018-04-15T16:27:52.371Z,100643.70
2018-04-15T16:30:19.976Z,100649.41
2018-04-15T16:32:47.580Z,100644.61
2018-04-15T16:35:16.052Z,100650.31
2018-04-15T16:37:43.588Z,100654.02
2018-04-15T16:40:11.499Z,100653.11
2018-04-15T16:42:39.722Z,100648.80
2018-04-15T16:45:08.109Z,100658.72
2018-04-15T16:47:36.657Z,100657.33
2018-04-15T16:50:04.867Z,100661.91
2018-04-15T16:52:33.304Z,100665.77
2018-04-15T16:55:02.133Z,100663.39
2018-04-15T16:57:30.385Z,100666.36
2018-04-15T16:59:58.639Z,100666.63
2018-04-15T17:02:27.345Z,100668.48
2018-04-15T17:04:56.307Z,100675.21
2018-04-15T17:07:24.534Z,100672.67
2018-04-15T17:09:53.429Z,100667.79
2018-04-15T17:12:22.011Z,100675.69
2018-04-15T17:14:51.207Z,100670.89
2018-04-15T17:17:19.503Z,100678.14
2018-04-15T17:19:47.826Z,100670.42
2018-04-15T17:22:16.542Z,100677.34
2018-04-15T17:24:44.744Z,100677.81
2018-04-15T17:27:13.716Z,100674.19
2018-04-15T17:29:42.222Z,100674.98
2018-04-15T17:32:11.736Z,100677.27
2018-04-15T17:34:39.870Z,100675.30
2018-04-15T17:37:08.216Z,100673.08
2018-04-15T17:39:36.778Z,100675.18
2018-04-15T17:42:04.970Z,100683.27
2018-04-15T17:44:33.248Z,100685.14
2018-04-15T17:47:02.011Z,100683.23
2018-04-15T17:49:30.188Z,100683.64
2018-04-15T17:51:58.438Z,100687.87
2018-04-15T17:54:27.115Z,100684.91
2018-04-15T17:56:55.305Z,100679.20
2018-04-15T17:59:23.555Z,100685.45
2018-04-15T18:01:52.338Z,100686.13
2018-04-15T18:04:20.554Z,100680.97
2018-04-15T18:06:49.342Z,100681.09
2018-04-15T18:09:18.011Z,100682.76
2018-04-15T18:11:46.302Z,100687.86
2018-04-15T18:14:14.519Z,100690.02
2018-04-15T18:16:43.075Z,100690.07
2018-04-15T18:19:11.301Z,100691.26
2018-04-15T18:21:39.698Z,100697.07
2018-04-15T18:24:08.479Z,100694.59
2018-04-15T18:26:36.724Z,100693.41
2018-04-15T18:29:04.935Z,100700.84
2018-04-15T18:31:33.641Z,100704.26
2018-04-15T18:34:01.856Z,100702.45
2018-04-15T18:36:30.055Z,100700.30
2018-04-15T18:38:58.863Z,100701.94
2018-04-15T18:41:27.157Z,100701.86
2018-04-15T18:43:55.335Z,100702.09
2018-04-15T18:46:24.175Z,100702.56
2018-04-15T18:48:52.881Z,100704.37
2018-04-15T18:51:21.063Z,100695.31
2018-04-15T18:53:49.263Z,100702.59
2018-04-15T18:56:18.013Z,100706.88
2018-04-15T18:58:46.190Z,100714.98
2018-04-15T19:01:14.426Z,100716.25
2018-04-15T19:03:43.187Z,100725.18
2018-04-15T19:06:11.375Z,100723.34
2018-04-15T19:08:40.168Z,100721.45
2018-04-15T19:11:08.699Z,100724.13
2018-04-15T19:13:36.911Z,100724.82
2018-04-15T19:16:05.322Z,100723.25
2018-04-15T19:18:33.761Z,100732.37
2018-04-15T19:21:01.965Z,100726.41
2018-04-15T19:23:30.258Z,100727.50
2018-04-15T19:25:59.219Z,100724.27
2018-04-15T19:28:27.673Z,100730.19
2018-04-15T19:30:56.000Z,100728.54
2018-04-15T19:33:24.700Z,100726.45
2018-04-15T19:35:53.453Z,100722.77
2018-04-15T19:38:21.688Z,100725.86
2018-04-15T19:40:50.517Z,100727.19
2018-04-15T19:43:19.093Z,100723.23
2018-04-15T19:45:47.365Z,100722.88
2018-04-15T19:48:15.650Z,100725.22
2018-04-15T19:50:44.291Z,100722.20
2018-04-15T19:53:12.570Z,100725.80
2018-04-15T19:55:40.778Z,100732.04
2018-04-15T19:58:09.610Z,100731.72
2018-04-15T20:00:37.849Z,100730.57
2018-04-15T20:03:06.021Z,100719.31
2018-04-15T20:05:34.737Z,100719.00
2018-04-15T20:08:03.060Z,100718.25
2018-04-15T20:10:31.253Z,100714.91
2018-04-15T20:12:59.862Z,100719.91
2018-04-15T20:15:28.096Z,100710.73
2018-04-15T20:17:56.311Z,100712.14
2018-04-15T20:20:25.030Z,100707.47
2018-04-15T20:22:53.254Z,100702.72
2018-04-15T20:25:21.432Z,100705.50
2018-04-15T20:27:50.093Z,100707.16
2018-04-15T20:30:18.321Z,100706.41
2018-04-15T20:32:46.526Z,100702.59
2018-04-15T20:35:15.145Z,100703.17
2018-04-15T20:37:43.391Z,100709.08
2018-04-15T20:40:11.577Z,100712.27
2018-04-15T20:42:40.211Z,100708.75
2018-04-15T20:45:08.424Z,100713.49
2018-04-15T20:47:36.638Z,100711.51
2018-04-15T20:50:05.329Z,100719.57
2018-04-15T20:52:33.574Z,100729.80
2018-04-15T20:55:01.782Z,100724.69
2018-04-15T20:57:30.398Z,100734.95
2018-04-15T20:59:58.663Z,100737.38
2018-04-15T21:02:26.860Z,100731.18
2018-04-15T21:04:55.391Z,100737.95
2018-04-15T21:07:23.616Z,100738.85
2018-04-15T21:09:51.839Z,100741.16
2018-04-15T21:12:20.583Z,100741.73
2018-04-15T21:14:48.815Z,100739.58
2018-04-15T21:17:17.000Z,100735.58
2018-04-15T21:19:45.727Z,100741.05
2018-04-15T21:22:13.923Z,100735.05
2018-04-15T21:24:42.137Z,100740.20
2018-04-15T21:27:10.917Z,100743.48
2018-04-15T21:29:39.752Z,100741.83
2018-04-15T21:32:07.947Z,100744.85
2018-04-15T21:34:36.174Z,100739.20
2018-04-15T21:37:04.906Z,100742.98
2018-04-15T21:39:33.093Z,100738.41
2018-04-15T21:42:01.310Z,100743.74
2018-04-15T21:44:30.040Z,100742.84
2018-04-15T21:46:58.218Z,100741.62
2018-04-15T21:49:26.433Z,100743.20
2018-04-15T21:51:55.116Z,100740.25
2018-04-15T21:54:23.331Z,100736.65
2018-04-15T21:56:51.525Z,100740.97
2018-04-15T21:59:20.325Z,100738.52
2018-04-15T22:01:48.510Z,100730.39
2018-04-15T22:04:16.715Z,100729.84
2018-04-15T22:06:45.421Z,100732.20
2018-04-15T22:09:13.619Z,100730.91
2018-04-15T22:11:53.696Z,100727.59
2018-04-15T22:14:22.267Z,100728.45
2018-04-15T22:16:50.572Z,100730.53
2018-04-15T22:19:18.751Z,100731.84
2018-04-15T22:21:46.951Z,100734.50
2018-04-15T22:24:15.723Z,100729.64
2018-04-15T22:26:43.923Z,100729.28
2018-04-15T22:29:12.115Z,100729.48
2018-04-15T22:31:40.737Z,100719.06
2018-04-15T22:34:09.061Z,100721.42
2018-04-15T22:36:37.268Z,100721.47
2018-04-15T22:39:05.913Z,100723.70
2018-04-15T22:41:34.100Z,100727.67
2018-04-15T22:44:02.321Z,100724.58
2018-04-15T22:46:30.960Z,100730.43
2018-04-15T22:48:59.158Z,100719.90
2018-04-15T22:51:27.344Z,100721.90
2018-04-15T22:53:56.101Z,100722.50
2018-04-15T22:56:24.317Z,100723.53
2018-04-15T22:58:53.088Z,100712.67
2018-04-15T23:01:21.707Z,100718.95
2018-04-15T23:03:49.935Z,100713.52
2018-04-15T23:06:18.175Z,100714.25
2018-04-15T23:08:46.847Z,100717.38
2018-04-15T23:11:15.045Z,100721.13
2018-04-15T23:13:43.224Z,100722.13
2018-04-15T23:16:11.731Z,100727.71
2018-04-15T23:18:39.936Z,100727.91
2018-04-15T23:21:08.407Z,100726.95
2018-04-15T23:23:37.116Z,100733.33
2018-04-15T23:26:05.589Z,100728.21
2018-04-15T23:28:33.868Z,100726.48
2018-04-15T23:31:02.554Z,100728.78
2018-04-15T23:33:30.777Z,100727.48
2018-04-15T23:35:58.955Z,100726.78
2018-04-15T23:38:27.473Z,100732.46
2018-04-15T23:40:55.699Z,100733.83
2018-04-15T23:43:23.901Z,100727.75
2018-04-15T23:45:53.112Z,100724.33
2018-04-15T23:48:21.739Z,100728.25
2018-04-15T23:50:49.953Z,100732.76
2018-04-15T23:53:18.155Z,100733.06
2018-04-15T23:55:46.785Z,100728.55
2018-04-15T23:58:15.428Z,100732.30
